createdAt,value
2022-12-08T00:00:08.810Z,77.08
2022-12-08T00:02:44.517Z,78.02
2022-12-08T00:05:30.065Z,77.71
2022-12-08T00:08:15.569Z,77.36
2022-12-08T00:10:49.994Z,78.15
2022-12-08T00:13:16.972Z,78.39
2022-12-08T00:15:43.661Z,78.44
2022-12-08T00:18:10.320Z,79.95
2022-12-08T00:20:37.060Z,80.25
2022-12-08T00:23:04.511Z,79.86
2022-12-08T00:25:31.963Z,79.77
2022-12-08T00:27:58.655Z,79.14
2022-12-08T00:30:25.350Z,78.45
2022-12-08T00:32:52.189Z,78.64
2022-12-08T00:35:18.885Z,78.00
2022-12-08T00:37:45.582Z,77.79
2022-12-08T00:40:12.290Z,77.69
2022-12-08T00:42:38.959Z,77.75
2022-12-08T00:45:06.199Z,79.43
2022-12-08T00:47:32.879Z,79.60
2022-12-08T00:49:59.736Z,79.18
2022-12-08T00:52:26.517Z,78.81
2022-12-08T00:54:53.161Z,78.64
2022-12-08T00:57:19.867Z,77.92
2022-12-08T00:59:46.585Z,78.41
2022-12-08T01:02:13.237Z,78.57
2022-12-08T01:04:39.929Z,78.09
2022-12-08T01:07:06.758Z,78.48
2022-12-08T01:09:34.130Z,77.92
2022-12-08T01:12:01.069Z,77.32
2022-12-08T01:14:27.797Z,76.84
2022-12-08T01:16:54.560Z,76.96
2022-12-08T01:19:21.294Z,77.17
2022-12-08T01:21:47.967Z,77.61
2022-12-08T01:24:17.623Z,77.68
2022-12-08T01:26:44.737Z,77.38
2022-12-08T01:29:11.892Z,76.79
2022-12-08T01:31:39.031Z,77.05
2022-12-08T01:34:06.371Z,77.26
2022-12-08T01:36:34.249Z,76.93
2022-12-08T01:39:01.983Z,77.10
2022-12-08T01:41:31.760Z,76.45
2022-12-08T01:44:02.572Z,77.45
2022-12-08T01:46:31.146Z,77.47
2022-12-08T01:49:33.819Z,77.24
2022-12-08T01:52:05.461Z,76.94
2022-12-08T01:54:35.346Z,77.61
2022-12-08T01:57:16.826Z,77.69
2022-12-08T01:59:51.077Z,77.73
2022-12-08T02:02:18.038Z,77.75
2022-12-08T02:04:44.815Z,77.72
2022-12-08T02:07:12.744Z,77.30
2022-12-08T02:09:40.336Z,77.86
2022-12-08T02:12:07.449Z,77.80
2022-12-08T02:14:34.631Z,77.86
2022-12-08T02:17:26.502Z,77.59
2022-12-08T02:20:37.926Z,78.56
2022-12-08T02:23:24.686Z,79.44
2022-12-08T02:26:09.729Z,79.50
2022-12-08T02:28:59.069Z,79.88
2022-12-08T02:31:36.978Z,80.23
2022-12-08T02:34:16.159Z,80.07
2022-12-08T02:36:49.086Z,79.88
2022-12-08T02:39:23.982Z,80.10
2022-12-08T02:42:02.787Z,80.11
2022-12-08T02:44:37.244Z,79.75
2022-12-08T02:47:09.237Z,79.98
2022-12-08T02:49:36.208Z,80.04
2022-12-08T02:52:29.541Z,80.11
2022-12-08T02:54:57.312Z,80.74
2022-12-08T02:57:39.277Z,80.30
2022-12-08T03:00:11.550Z,80.78
2022-12-08T03:03:05.177Z,80.38
2022-12-08T03:05:51.181Z,80.35
2022-12-08T03:08:28.078Z,80.35
2022-12-08T03:11:05.275Z,79.64
2022-12-08T03:13:40.725Z,80.10
2022-12-08T03:16:09.384Z,80.14
2022-12-08T03:18:40.234Z,79.79
2022-12-08T03:21:07.385Z,79.16
2022-12-08T03:23:36.601Z,79.50
2022-12-08T03:26:08.986Z,79.53
2022-12-08T03:28:35.814Z,80.16
2022-12-08T03:31:03.847Z,79.55
2022-12-08T03:33:37.329Z,80.76
2022-12-08T03:36:05.872Z,81.07
2022-12-08T03:38:46.511Z,80.43
2022-12-08T03:41:19.046Z,80.94
2022-12-08T03:43:47.687Z,81.32
2022-12-08T03:46:16.178Z,80.89
2022-12-08T03:48:43.165Z,80.80
2022-12-08T03:51:10.045Z,80.19
2022-12-08T03:53:36.972Z,80.21
2022-12-08T03:56:05.977Z,80.56
2022-12-08T03:58:37.177Z,80.75
2022-12-08T04:01:04.322Z,80.38
2022-12-08T04:03:31.145Z,80.31
2022-12-08T04:05:57.853Z,80.59
2022-12-08T04:08:24.664Z,80.53
2022-12-08T04:10:51.404Z,80.41
2022-12-08T04:13:18.178Z,80.57
2022-12-08T04:15:46.579Z,80.72
2022-12-08T04:18:13.794Z,80.55
2022-12-08T04:20:41.620Z,80.69
2022-12-08T04:23:10.317Z,80.74
2022-12-08T04:25:38.707Z,80.73
2022-12-08T04:28:05.916Z,80.51
2022-12-08T04:30:33.177Z,80.77
2022-12-08T04:32:59.977Z,80.82
2022-12-08T04:35:26.839Z,80.90
2022-12-08T04:37:53.533Z,80.97
2022-12-08T04:40:20.242Z,80.90
2022-12-08T04:42:46.953Z,80.81
2022-12-08T04:45:13.622Z,80.70
2022-12-08T04:47:40.466Z,81.43
2022-12-08T04:50:08.430Z,81.31
2022-12-08T04:52:35.172Z,81.34
2022-12-08T04:55:02.252Z,81.13
2022-12-08T04:57:28.964Z,81.80
2022-12-08T04:59:55.789Z,80.50
2022-12-08T05:02:22.541Z,81.16
2022-12-08T05:04:49.364Z,81.16
2022-12-08T05:07:16.119Z,80.97
2022-12-08T05:09:42.869Z,80.71
2022-12-08T05:12:09.558Z,81.15
2022-12-08T05:14:36.244Z,80.60
2022-12-08T05:17:09.168Z,80.44
2022-12-08T05:19:36.385Z,80.27
2022-12-08T05:22:03.127Z,80.59
2022-12-08T05:24:29.867Z,80.84
2022-12-08T05:26:56.599Z,80.53
2022-12-08T05:29:23.416Z,80.39
2022-12-08T05:31:50.835Z,80.64
2022-12-08T05:34:18.385Z,80.72
2022-12-08T05:36:45.120Z,81.06
2022-12-08T05:39:13.547Z,80.53
2022-12-08T05:41:40.425Z,80.61
2022-12-08T05:44:07.670Z,80.79
2022-12-08T05:46:34.481Z,80.93
2022-12-08T05:49:01.931Z,80.80
2022-12-08T05:51:29.111Z,80.81
2022-12-08T05:53:56.132Z,80.34
2022-12-08T05:56:23.481Z,80.08
2022-12-08T05:58:50.258Z,80.29
2022-12-08T06:01:23.794Z,80.09
2022-12-08T06:03:50.891Z,80.17
2022-12-08T06:06:17.764Z,80.39
2022-12-08T06:08:44.688Z,80.66
2022-12-08T06:11:21.210Z,80.92
2022-12-08T06:13:49.119Z,81.35
2022-12-08T06:16:16.566Z,81.05
2022-12-08T06:18:43.835Z,80.70
2022-12-08T06:21:12.042Z,80.62
2022-12-08T06:23:39.158Z,80.55
2022-12-08T06:26:08.705Z,80.45
2022-12-08T06:28:36.457Z,80.61
2022-12-08T06:31:21.323Z,80.71
2022-12-08T06:33:48.474Z,80.89
2022-12-08T06:36:18.775Z,80.74
2022-12-08T06:38:47.226Z,80.01
2022-12-08T06:41:14.662Z,79.95
2022-12-08T06:43:41.915Z,80.10
2022-12-08T06:46:10.930Z,79.94
2022-12-08T06:48:37.761Z,80.04
2022-12-08T06:51:13.604Z,79.95
2022-12-08T06:53:40.655Z,80.01
2022-12-08T06:56:07.889Z,80.00
2022-12-08T06:58:34.799Z,80.73
2022-12-08T07:01:09.593Z,80.36
2022-12-08T07:03:37.729Z,80.95
2022-12-08T07:06:05.138Z,81.10
2022-12-08T07:08:33.220Z,81.01
2022-12-08T07:11:00.103Z,81.38
2022-12-08T07:13:26.951Z,81.06
2022-12-08T07:15:53.818Z,80.58
2022-12-08T07:18:20.856Z,81.15
2022-12-08T07:20:47.853Z,81.90
2022-12-08T07:23:14.837Z,81.93
2022-12-08T07:25:41.867Z,81.58
2022-12-08T07:28:10.870Z,81.38
2022-12-08T07:30:38.495Z,80.80
2022-12-08T07:33:08.341Z,81.34
2022-12-08T07:35:35.590Z,81.44
2022-12-08T07:38:02.556Z,81.67
2022-12-08T07:40:29.367Z,80.61
2022-12-08T07:42:57.174Z,81.27
2022-12-08T07:45:29.867Z,81.50
2022-12-08T07:47:58.555Z,81.15
2022-12-08T07:50:25.404Z,80.65
2022-12-08T07:52:52.200Z,80.80
2022-12-08T07:55:19.144Z,80.97
2022-12-08T07:57:46.047Z,80.62
2022-12-08T08:00:13.551Z,80.33
2022-12-08T08:02:40.875Z,81.23
2022-12-08T08:05:08.491Z,81.30
2022-12-08T08:07:36.947Z,81.32
2022-12-08T08:10:04.879Z,80.95
2022-12-08T08:12:33.376Z,80.72
2022-12-08T08:15:01.341Z,80.45
2022-12-08T08:17:29.438Z,82.16
2022-12-08T08:19:56.774Z,82.40
2022-12-08T08:22:25.122Z,82.07
2022-12-08T08:24:52.646Z,81.41
2022-12-08T08:27:20.596Z,81.69
2022-12-08T08:29:47.804Z,81.49
2022-12-08T08:32:14.996Z,81.00
2022-12-08T08:34:42.105Z,81.51
2022-12-08T08:37:09.520Z,81.67
2022-12-08T08:39:36.560Z,81.35
2022-12-08T08:42:03.469Z,81.28
2022-12-08T08:44:31.549Z,81.64
2022-12-08T08:46:58.651Z,81.66
2022-12-08T08:49:25.645Z,81.56
2022-12-08T08:51:52.896Z,81.43
2022-12-08T08:54:20.096Z,81.60
2022-12-08T08:56:48.521Z,81.79
2022-12-08T08:59:15.639Z,81.79
2022-12-08T09:01:43.683Z,81.23
2022-12-08T09:04:10.698Z,80.29
2022-12-08T09:06:38.312Z,81.15
2022-12-08T09:09:05.344Z,81.31
2022-12-08T09:11:33.104Z,82.23
2022-12-08T09:13:59.932Z,81.98
2022-12-08T09:16:27.247Z,81.96
2022-12-08T09:18:54.329Z,81.89
2022-12-08T09:21:24.321Z,82.07
2022-12-08T09:23:53.437Z,80.75
2022-12-08T09:26:22.604Z,81.79
2022-12-08T09:28:50.788Z,81.59
2022-12-08T09:31:18.987Z,81.33
2022-12-08T09:33:47.659Z,81.69
2022-12-08T09:36:14.517Z,80.74
2022-12-08T09:38:41.512Z,81.22
2022-12-08T09:41:18.241Z,82.14
2022-12-08T09:44:15.070Z,81.58
2022-12-08T09:46:43.682Z,81.75
2022-12-08T09:49:16.729Z,80.98
2022-12-08T09:51:44.639Z,81.69
2022-12-08T09:54:32.864Z,81.66
2022-12-08T09:57:02.956Z,82.53
2022-12-08T09:59:32.268Z,81.41
2022-12-08T10:02:01.519Z,81.80
2022-12-08T10:04:37.062Z,81.78
2022-12-08T10:07:18.189Z,81.44
2022-12-08T10:10:28.567Z,81.48
2022-12-08T10:12:59.718Z,81.51
2022-12-08T10:15:40.607Z,81.66
2022-12-08T10:18:19.944Z,81.55
2022-12-08T10:20:48.882Z,81.21
2022-12-08T10:23:23.281Z,81.82
2022-12-08T10:25:53.898Z,82.16
2022-12-08T10:28:20.967Z,82.07
2022-12-08T10:30:47.732Z,82.04
2022-12-08T10:33:17.059Z,81.18
2022-12-08T10:35:46.882Z,80.49
2022-12-08T10:38:22.939Z,81.24
2022-12-08T10:40:57.497Z,82.30
2022-12-08T10:43:27.956Z,81.83
2022-12-08T10:45:54.904Z,81.09
2022-12-08T10:48:25.823Z,81.16
2022-12-08T10:50:52.628Z,80.99
2022-12-08T10:53:29.408Z,80.82
2022-12-08T10:56:02.637Z,80.93
2022-12-08T10:58:40.754Z,80.97
2022-12-08T11:01:15.877Z,81.49
2022-12-08T11:04:18.091Z,81.20
2022-12-08T11:06:45.668Z,82.42
2022-12-08T11:09:15.464Z,82.54
2022-12-08T11:11:51.617Z,81.87
2022-12-08T11:14:43.815Z,82.28
2022-12-08T11:17:15.698Z,82.61
2022-12-08T11:19:46.381Z,81.94
2022-12-08T11:22:28.034Z,81.46
2022-12-08T11:25:07.965Z,82.08
2022-12-08T11:27:36.922Z,81.74
2022-12-08T11:30:14.707Z,82.50
2022-12-08T11:32:44.875Z,82.91
2022-12-08T11:35:21.538Z,82.49
2022-12-08T11:37:49.042Z,82.77
2022-12-08T11:40:22.307Z,82.68
2022-12-08T11:42:59.506Z,82.60
2022-12-08T11:45:30.703Z,82.07
2022-12-08T11:48:20.090Z,82.53
2022-12-08T11:50:53.853Z,83.59
2022-12-08T11:53:26.996Z,83.52
2022-12-08T11:56:09.634Z,83.35
2022-12-08T11:58:41.513Z,83.38
2022-12-08T12:01:17.443Z,83.23
2022-12-08T12:03:49.221Z,83.10
2022-12-08T12:06:46.259Z,82.95
2022-12-08T12:09:20.220Z,83.28
2022-12-08T12:12:13.220Z,82.95
2022-12-08T12:15:00.796Z,82.71
2022-12-08T12:17:30.781Z,82.68
2022-12-08T12:20:04.395Z,83.13
2022-12-08T12:22:34.827Z,82.67
2022-12-08T12:25:03.683Z,81.84
2022-12-08T12:27:38.598Z,82.13
2022-12-08T12:30:09.142Z,82.42
2022-12-08T12:32:51.305Z,82.82
2022-12-08T12:35:30.971Z,83.13
2022-12-08T12:38:26.941Z,82.37
2022-12-08T12:41:01.023Z,82.57
2022-12-08T12:43:36.305Z,82.36
2022-12-08T12:46:25.636Z,82.13
2022-12-08T12:48:52.683Z,81.93
2022-12-08T12:51:44.617Z,82.07
2022-12-08T12:54:25.673Z,82.47
2022-12-08T12:57:16.015Z,81.92
2022-12-08T12:59:47.837Z,81.95
2022-12-08T13:02:26.676Z,81.58
2022-12-08T13:05:09.708Z,82.02
2022-12-08T13:07:44.004Z,81.38
2022-12-08T13:10:19.985Z,81.27
2022-12-08T13:13:02.480Z,81.50
2022-12-08T13:15:35.302Z,81.71
2022-12-08T13:18:02.176Z,81.17
2022-12-08T13:20:28.910Z,81.73
2022-12-08T13:23:29.038Z,81.23
2022-12-08T13:26:15.891Z,81.70
2022-12-08T13:29:25.039Z,81.74
2022-12-08T13:31:56.268Z,81.53
2022-12-08T13:34:45.624Z,81.20
2022-12-08T13:37:12.467Z,81.21
2022-12-08T13:39:39.033Z,81.46
2022-12-08T13:42:11.801Z,81.13
2022-12-08T13:45:20.157Z,81.04
2022-12-08T13:48:20.397Z,81.97
2022-12-08T13:52:33.071Z,82.24
2022-12-08T13:59:19.643Z,81.93
2022-12-08T14:01:49.135Z,82.52
2022-12-08T14:04:42.617Z,82.26
2022-12-08T14:07:09.558Z,81.34
2022-12-08T14:09:37.265Z,82.13
2022-12-08T14:12:16.325Z,81.10
2022-12-08T14:15:02.385Z,80.21
2022-12-08T14:17:33.579Z,80.36
2022-12-08T14:20:07.812Z,80.30
2022-12-08T14:22:36.624Z,80.05
2022-12-08T14:25:04.622Z,79.54
2022-12-08T14:27:36.601Z,79.70
2022-12-08T14:30:13.656Z,79.80
2022-12-08T14:32:47.569Z,79.74
2022-12-08T14:35:23.360Z,79.42
2022-12-08T14:37:51.795Z,79.26
2022-12-08T14:40:22.767Z,79.18
2022-12-08T14:43:14.531Z,79.55
2022-12-08T14:45:41.363Z,79.92
2022-12-08T14:48:30.750Z,79.74
2022-12-08T14:51:03.336Z,79.71
2022-12-08T14:53:38.623Z,79.53
2022-12-08T14:56:24.859Z,79.11
2022-12-08T14:59:11.528Z,79.51
2022-12-08T15:01:38.621Z,79.26
2022-12-08T15:04:14.941Z,79.42
2022-12-08T15:07:17.851Z,79.02
2022-12-08T15:09:46.643Z,79.50
2022-12-08T15:12:13.220Z,79.28
2022-12-08T15:14:54.514Z,79.45
2022-12-08T15:17:41.949Z,78.96
2022-12-08T15:20:50.899Z,78.60
2022-12-08T15:23:25.340Z,78.31
2022-12-08T15:25:52.209Z,78.59
2022-12-08T15:28:25.237Z,78.30
2022-12-08T15:30:55.469Z,78.18
2022-12-08T15:33:22.314Z,77.98
2022-12-08T15:35:49.869Z,78.05
2022-12-08T15:38:26.483Z,77.70
2022-12-08T15:40:54.634Z,77.30
2022-12-08T15:43:22.168Z,77.70
2022-12-08T15:45:58.367Z,77.61
2022-12-08T15:48:28.328Z,77.46
2022-12-08T15:50:55.368Z,77.82
2022-12-08T15:53:22.233Z,77.55
2022-12-08T15:56:25.232Z,77.72
2022-12-08T15:58:54.212Z,78.03
2022-12-08T16:01:22.485Z,77.83
2022-12-08T16:09:29.766Z,78.09
2022-12-08T16:12:15.265Z,77.43
2022-12-08T16:17:31.474Z,77.89
2022-12-08T16:19:58.303Z,77.80
2022-12-08T16:25:20.565Z,78.12
2022-12-08T16:28:17.334Z,78.32
2022-12-08T16:30:37.257Z,77.85
2022-12-08T16:33:04.386Z,78.33
2022-12-08T16:35:31.234Z,78.54
2022-12-08T16:37:58.223Z,78.60
2022-12-08T16:40:25.124Z,77.71
2022-12-08T16:42:51.855Z,77.98
2022-12-08T16:45:25.497Z,77.84
2022-12-08T16:47:59.181Z,77.98
2022-12-08T16:50:27.431Z,77.97
2022-12-08T16:53:05.258Z,78.19
2022-12-08T16:55:32.656Z,77.75
2022-12-08T16:57:59.747Z,77.50
2022-12-08T17:00:28.202Z,77.13
2022-12-08T17:02:55.163Z,77.51
2022-12-08T17:05:24.339Z,77.25
2022-12-08T17:07:52.752Z,76.98
2022-12-08T17:10:23.119Z,76.95
2022-12-08T17:12:50.454Z,77.00
2022-12-08T17:15:20.954Z,77.35
2022-12-08T17:17:47.646Z,77.39
2022-12-08T17:20:20.715Z,76.88
2022-12-08T17:22:47.831Z,76.98
2022-12-08T17:25:15.074Z,76.90
2022-12-08T17:27:41.952Z,76.80
2022-12-08T17:30:11.864Z,76.94
2022-12-08T17:32:39.130Z,77.17
2022-12-08T17:35:07.035Z,76.90
2022-12-08T17:37:34.147Z,76.67
2022-12-08T17:40:01.005Z,76.73
2022-12-08T17:42:27.804Z,76.80
2022-12-08T17:44:54.956Z,76.51
2022-12-08T17:47:22.416Z,76.69
2022-12-08T17:49:49.119Z,76.59
2022-12-08T17:52:15.942Z,77.14
2022-12-08T17:54:42.624Z,76.47
2022-12-08T17:57:09.405Z,76.19
2022-12-08T17:59:36.079Z,76.30
2022-12-08T18:02:04.545Z,76.78
2022-12-08T18:04:31.648Z,76.53
2022-12-08T18:07:00.370Z,77.12
2022-12-08T18:09:27.162Z,76.45
2022-12-08T18:11:53.956Z,76.29
2022-12-08T18:14:20.830Z,76.18
2022-12-08T18:16:47.917Z,76.53
2022-12-08T18:19:15.572Z,76.49
2022-12-08T18:21:42.864Z,76.33
2022-12-08T18:24:17.102Z,76.38
2022-12-08T18:26:43.847Z,76.76
2022-12-08T18:29:10.506Z,76.41
2022-12-08T18:31:37.192Z,76.62
2022-12-08T18:34:04.097Z,76.37
2022-12-08T18:36:31.027Z,76.10
2022-12-08T18:38:57.909Z,76.13
2022-12-08T18:41:26.247Z,76.76
2022-12-08T18:43:55.358Z,76.41
2022-12-08T18:46:22.218Z,76.58
2022-12-08T18:48:50.673Z,76.79
2022-12-08T18:51:20.473Z,76.34
2022-12-08T18:53:48.034Z,76.60
2022-12-08T18:56:26.302Z,76.63
2022-12-08T18:58:58.479Z,76.62
2022-12-08T19:01:28.599Z,76.65
2022-12-08T19:04:26.609Z,76.80
2022-12-08T19:06:45.080Z,76.76
2022-12-08T19:09:16.010Z,76.40
2022-12-08T19:11:43.383Z,76.52
2022-12-08T19:14:10.690Z,76.13
2022-12-08T19:16:37.606Z,77.02
2022-12-08T19:19:04.439Z,76.44
2022-12-08T19:21:31.810Z,76.28
2022-12-08T19:23:58.786Z,76.00
2022-12-08T19:26:27.413Z,76.22
2022-12-08T19:28:54.242Z,76.71
2022-12-08T19:31:21.304Z,76.65
2022-12-08T19:33:48.062Z,76.91
2022-12-08T19:36:20.333Z,77.07
2022-12-08T19:39:05.645Z,77.07
2022-12-08T19:41:58.953Z,76.90
2022-12-08T19:44:46.240Z,77.01
2022-12-08T19:47:13.935Z,76.92
2022-12-08T19:49:41.148Z,77.32
2022-12-08T19:52:08.012Z,77.41
2022-12-08T19:54:34.985Z,77.83
2022-12-08T19:57:02.083Z,78.11
2022-12-08T19:59:30.406Z,78.72
2022-12-08T20:01:58.394Z,78.30
2022-12-08T20:04:26.240Z,78.59
2022-12-08T20:06:54.152Z,77.55
2022-12-08T20:09:21.609Z,77.50
2022-12-08T20:11:48.534Z,78.12
2022-12-08T20:14:15.197Z,77.77
2022-12-08T20:16:42.075Z,78.00
2022-12-08T20:19:09.458Z,78.19
2022-12-08T20:21:36.231Z,77.97
2022-12-08T20:24:04.751Z,78.28
2022-12-08T20:26:31.883Z,78.24
2022-12-08T20:28:58.609Z,78.38
2022-12-08T20:31:29.654Z,78.88
2022-12-08T20:33:56.482Z,78.47
2022-12-08T20:36:23.494Z,78.10
2022-12-08T20:38:51.600Z,77.64
2022-12-08T20:41:19.149Z,77.43
2022-12-08T20:43:47.555Z,77.88
2022-12-08T20:46:15.910Z,77.69
2022-12-08T20:48:43.849Z,77.29
2022-12-08T20:51:15.871Z,77.22
2022-12-08T20:53:43.070Z,76.78
2022-12-08T20:56:17.934Z,77.60
2022-12-08T20:58:45.545Z,77.62
2022-12-08T21:01:13.921Z,76.86
2022-12-08T21:03:41.632Z,77.14
2022-12-08T21:06:08.610Z,77.21
2022-12-08T21:08:35.647Z,76.82
2022-12-08T21:11:03.497Z,76.73
2022-12-08T21:13:30.489Z,76.31
2022-12-08T21:15:57.606Z,76.02
2022-12-08T21:18:25.194Z,75.48
2022-12-08T21:20:52.645Z,75.88
2022-12-08T21:23:19.833Z,76.76
2022-12-08T21:25:47.624Z,76.52
2022-12-08T21:28:14.528Z,76.97
2022-12-08T21:30:43.136Z,77.99
2022-12-08T21:33:28.756Z,78.48
2022-12-08T21:36:07.937Z,78.73
2022-12-08T21:38:38.856Z,77.96
2022-12-08T21:41:08.548Z,77.60
2022-12-08T21:43:35.504Z,77.28
2022-12-08T21:46:02.713Z,77.16
2022-12-08T21:48:29.611Z,76.98
2022-12-08T21:50:56.808Z,76.64
2022-12-08T21:53:26.504Z,77.31
2022-12-08T21:55:53.394Z,77.51
2022-12-08T21:58:20.097Z,77.52
2022-12-08T22:00:47.049Z,77.27
2022-12-08T22:03:14.832Z,77.59
2022-12-08T22:05:42.495Z,77.75
2022-12-08T22:08:09.660Z,77.40
2022-12-08T22:10:36.597Z,77.02
2022-12-08T22:13:03.665Z,76.91
2022-12-08T22:15:30.766Z,76.70
2022-12-08T22:17:57.758Z,76.07
2022-12-08T22:20:25.050Z,76.08
2022-12-08T22:22:51.962Z,76.34
2022-12-08T22:25:19.166Z,76.54
2022-12-08T22:27:46.066Z,77.05
2022-12-08T22:30:13.444Z,77.11
2022-12-08T22:32:40.758Z,76.73
2022-12-08T22:35:08.001Z,76.37
2022-12-08T22:37:35.076Z,76.40
2022-12-08T22:40:02.027Z,76.23
2022-12-08T22:42:28.972Z,76.47
2022-12-08T22:44:55.769Z,76.34
2022-12-08T22:47:22.583Z,76.13
2022-12-08T22:49:49.322Z,75.95
2022-12-08T22:52:16.254Z,75.93
2022-12-08T22:54:43.175Z,76.36
2022-12-08T22:57:10.294Z,76.24
2022-12-08T22:59:37.735Z,76.08
2022-12-08T23:02:04.578Z,75.82
2022-12-08T23:04:31.358Z,75.72
2022-12-08T23:06:58.144Z,75.46
2022-12-08T23:09:24.911Z,75.75
2022-12-08T23:11:52.092Z,75.42
2022-12-08T23:14:18.775Z,75.41
2022-12-08T23:16:45.580Z,75.54
2022-12-08T23:19:12.441Z,75.07
2022-12-08T23:21:39.461Z,75.39
2022-12-08T23:24:06.204Z,75.61
2022-12-08T23:26:35.416Z,75.26
2022-12-08T23:29:02.456Z,75.65
2022-12-08T23:31:29.131Z,75.90
2022-12-08T23:33:56.103Z,75.63
2022-12-08T23:36:26.317Z,75.01
2022-12-08T23:38:54.209Z,75.41
2022-12-08T23:41:21.125Z,75.88
2022-12-08T23:43:49.866Z,76.58
2022-12-08T23:46:18.400Z,76.77
2022-12-08T23:48:45.716Z,76.07
2022-12-08T23:51:13.113Z,75.88
2022-12-08T23:53:40.167Z,75.73
2022-12-08T23:56:10.599Z,75.17
2022-12-08T23:58:37.736Z,75.47
